Flight Track Log - Related Links

Times and Time Zones

All times are in EDT time to prevent confusion due to time zone crossing. See the C-GMNJ flight status page for this flight to view local times or setup timezone preferences in your user account.

Time Position Orientation Groundspeed Altitude Reporting Facility
EDT Latitude Longitude Course Direction KTS MPH feet Rate Location/Type
Mon 01:25:54 PM 46.4667 -84.4667 145° Southeast 100 115 1,300  Level Toronto Center
Mon 01:26:54 PM 46.4500 -84.4500 145° Southeast 140 161 1,700 500 Climbing Toronto Center
Mon 01:27:54 PM 46.4167 -84.4000 134° Southeast 150 173 2,300 500 Climbing Toronto Center
Mon 01:28:54 PM 46.3833 -84.3500 134° Southeast 150 173 2,700 450 Climbing Toronto Center
Mon 01:29:54 PM 46.3667 -84.3000 116° Southeast 150 173 3,200 500 Climbing Toronto Center
Mon 01:30:54 PM 46.3333 -84.2500 134° Southeast 150 173 3,700 500 Climbing Toronto Center
Mon 01:31:54 PM 46.3333 -84.2000 90° East 160 184 4,200 500 Climbing Toronto Center
Mon 01:32:54 PM 46.3000 -84.1500 134° Southeast 150 173 4,700 500 Climbing Toronto Center
Mon 01:33:54 PM 46.2833 -84.1000 116° Southeast 150 173 5,200 500 Climbing Toronto Center
Mon 01:34:54 PM 46.2500 -84.0500 134° Southeast 150 173 5,700 450 Climbing Toronto Center
Mon 01:35:54 PM 46.2167 -84.0000 134° Southeast 150 173 6,100 450 Climbing Toronto Center
Mon 01:36:54 PM 46.2000 -83.9500 116° Southeast 150 173 6,600 450 Climbing Toronto Center
Mon 01:37:54 PM 46.1667 -83.9000 134° Southeast 150 173 7,000 250 Climbing Toronto Center
Mon 01:38:54 PM 46.1500 -83.8500 116° Southeast 150 173 7,100 50 Climbing Toronto Center
Mon 01:39:54 PM 46.1167 -83.8000 134° Southeast 160 184 7,100  Level Toronto Center
Mon 01:40:54 PM 46.1167 -83.7500 90° East 160 184 7,100  Level Toronto Center
Mon 01:41:54 PM 46.0833 -83.7000 134° Southeast 160 184 7,100  Level Toronto Center
Mon 01:42:54 PM 46.0500 -83.6500 134° Southeast 160 184 7,100  Level Toronto Center
Mon 01:43:54 PM 46.0333 -83.6000 116° Southeast 160 184 7,100  Level Toronto Center
Mon 01:44:54 PM 46.0000 -83.5167 120° Southeast 170 196 7,100  Level Toronto Center
Mon 01:45:54 PM 45.9667 -83.4667 134° Southeast 170 196 7,100  Level Toronto Center
Mon 01:46:54 PM 45.9333 -83.4167 134° Southeast 170 196 7,100  Level Toronto Center
Mon 01:47:54 PM 45.9167 -83.3667 116° Southeast 160 184 7,100  Level Toronto Center
Mon 01:48:54 PM 45.8833 -83.3167 134° Southeast 160 184 7,100  Level Toronto Center
Mon 01:50:54 PM 45.8500 -83.2000 112° Southeast 160 184 7,100  Level Toronto Center
Mon 01:51:54 PM 45.8167 -83.1500 134° Southeast 160 184 7,100  Level Toronto Center
Mon 01:54:32 PM 45.7333 -83.0167 132° Southeast 160 184 7,100  Level Toronto Center
Mon 01:55:32 PM 45.7167 -82.9500 110° East 170 196 7,100  Level Toronto Center
Mon 01:56:32 PM 45.6833 -82.9000 134° Southeast 170 196 7,100  Level Toronto Center
Mon 01:57:32 PM 45.6500 -82.8500 134° Southeast 170 196 7,100  Level Toronto Center
Mon 01:58:32 PM 45.6167 -82.8000 134° Southeast 170 196 7,100  Level Toronto Center
Mon 01:59:32 PM 45.6000 -82.7333 110° East 170 196 7,100  Level Toronto Center
Mon 02:02:00 PM 45.5582 -82.6528 127° Southeast  Level FlightAware Approximate
Mon 02:09:00 PM 45.3583 -82.2701 127° Southeast  Level FlightAware Approximate
Mon 02:12:00 PM 45.2727 -82.1120 128° Southeast  Level FlightAware Approximate
Mon 02:13:00 PM 45.2441 -82.0593 128° Southeast  Level FlightAware Approximate
Mon 02:14:00 PM 45.2155 -82.0068 128° Southeast  Level FlightAware Approximate
Mon 02:15:00 PM 45.1869 -81.9543 128° Southeast  Level FlightAware Approximate
Mon 02:16:00 PM 45.1582 -81.9018 128° Southeast  Level FlightAware Approximate
Mon 02:17:00 PM 45.1296 -81.8494 128° Southeast  Level FlightAware Approximate
Mon 02:18:00 PM 45.1008 -81.7971 128° Southeast  Level FlightAware Approximate
Mon 02:19:00 PM 45.0721 -81.7448 128° Southeast  Level FlightAware Approximate
Mon 02:20:00 PM 45.0434 -81.6925 128° Southeast  Level FlightAware Approximate
Mon 02:21:00 PM 45.0146 -81.6403 128° Southeast  Level FlightAware Approximate
Mon 02:22:00 PM 44.9858 -81.5882 128° Southeast  Level FlightAware Approximate
Mon 02:23:00 PM 44.9570 -81.5361 128° Southeast  Level FlightAware Approximate
Mon 02:24:00 PM 44.9282 -81.4840 128° Southeast  Level FlightAware Approximate
Mon 02:25:00 PM 44.8992 -81.4320 128° Southeast  Level FlightAware Approximate
Mon 02:26:00 PM 44.8704 -81.3800 128° Southeast  Level FlightAware Approximate
Mon 02:27:00 PM 44.8415 -81.3280 128° Southeast  Level FlightAware Approximate
Mon 02:28:00 PM 44.8126 -81.2762 128° Southeast  Level FlightAware Approximate
Mon 02:29:00 PM 44.7837 -81.2243 128° Southeast  Level FlightAware Approximate
Mon 02:30:00 PM 44.7548 -81.1725 128° Southeast  Level FlightAware Approximate
Mon 02:31:00 PM 44.7258 -81.1208 128° Southeast  Level FlightAware Approximate
Mon 02:32:00 PM 44.6968 -81.0691 128° Southeast  Level FlightAware Approximate
Mon 02:33:00 PM 44.6678 -81.0175 128° Southeast  Level FlightAware Approximate
Mon 02:33:48 PM 44.5667 -80.8333 115° Southeast 190 219 7,100  Level Toronto Center
Mon 02:34:00 PM 44.6388 -80.9660 128° Southeast  Level FlightAware Approximate
Mon 02:34:48 PM 44.5333 -80.7500 119° Southeast 180 207 7,100  Level Toronto Center
Mon 02:35:00 PM 44.6097 -80.9144 128° Southeast  Level FlightAware Approximate
Mon 02:35:48 PM 44.5333 -80.7167 90° East 180 207 7,100  Level Toronto Center
Mon 02:36:00 PM 44.5901 -80.8544 115° Southeast  Level Estimated
Mon 02:36:48 PM 44.5333 -80.6333 90° East 190 219 7,100  Level Toronto Center
Mon 02:37:00 PM 44.5703 -80.7944 115° Southeast  Level Estimated
Mon 02:37:48 PM 44.5333 -80.5667 90° East 180 207 7,100  Level Toronto Center
Mon 02:38:00 PM 44.5506 -80.7344 115° Southeast  Level Estimated
Mon 02:38:48 PM 44.5333 -80.4667 90° East 180 207 7,100  Level Toronto Center
Mon 02:39:00 PM 44.5308 -80.6745 115° Southeast  Level Estimated
Mon 02:39:48 PM 44.5333 -80.4333 90° East 180 207 7,100  Level Toronto Center
Mon 02:40:48 PM 44.5500 -80.3500 74° East 180 207 7,100  Level Toronto Center
Mon 02:41:48 PM 44.5500 -80.2667 90° East 180 207 7,100  Level Toronto Center
Mon 02:42:48 PM 44.5500 -80.2167 90° East 180 207 7,100  Level Toronto Center
Mon 02:43:48 PM 44.5500 -80.1167 90° East 180 207 7,100  Level Toronto Center
Mon 02:44:48 PM 44.5500 -80.0500 90° East 180 207 7,100  Level Toronto Center
Mon 02:45:48 PM 44.5667 -79.9833 71° East 180 207 7,100  Level Toronto Center
Mon 02:46:48 PM 44.5667 -79.9167 90° East 180 207 7,100  Level Toronto Center
Mon 02:47:48 PM 44.5667 -79.8667 90° East 180 207 7,100  Level Toronto Center
Mon 02:48:48 PM 44.5667 -79.7667 90° East 180 207 7,100  Level Toronto Center
Mon 02:49:48 PM 44.5667 -79.7333 90° East 180 207 7,100  Level Toronto Center
Mon 02:50:48 PM 44.5667 -79.6500 90° East 170 196 7,100  Level Toronto Center
Mon 02:51:48 PM 44.5333 -79.6167 145° Southeast 180 207 7,100  Level Toronto Center
Mon 02:52:48 PM 44.5000 -79.5333 119° Southeast 180 207 7,100  Level Toronto Center
Mon 02:53:48 PM 44.4667 -79.5000 144° Southeast 180 207 7,100  Level Toronto Center
Mon 02:54:48 PM 44.4333 -79.4500 133° Southeast 180 207 7,100  Level Toronto Center
Mon 02:55:48 PM 44.4000 -79.4000 133° Southeast 170 196 7,100  Level Toronto Center
Mon 02:56:48 PM 44.3667 -79.3500 133° Southeast 170 196 7,100  Level Toronto Center
Mon 02:57:48 PM 44.3333 -79.3000 133° Southeast 170 196 7,100  Level Toronto Center
Mon 02:58:48 PM 44.3000 -79.2667 144° Southeast 170 196 7,100 -250 Level Toronto Center
Mon 02:59:48 PM 44.2667 -79.2167 133° Southeast 170 196 6,600 -550 Descending Toronto Center
Mon 03:00:48 PM 44.2333 -79.1667 133° Southeast 170 196 6,000 -650 Descending Toronto Center
Mon 03:01:48 PM 44.2167 -79.1000 109° East 170 196 5,300 -750 Descending Toronto Center
Mon 03:02:48 PM 44.2000 -79.0500 115° Southeast 170 196 4,500 -600 Descending Toronto Center
Mon 03:03:48 PM 44.1833 -79.0000 115° Southeast 150 173 4,100 -300 Descending Toronto Center
Mon 03:04:48 PM 44.1667 -78.9667 125° Southeast 130 150 3,900 -350 Descending Toronto Center
Mon 03:05:48 PM 44.1500 -78.9167 115° Southeast 120 138 3,400 -350 Descending Toronto Center
Mon 03:06:48 PM 44.1333 -78.8667 115° Southeast 120 138 3,200 -250 Descending Toronto Center
Mon 03:07:48 PM 44.1167 -78.8167 115° Southeast 120 138 2,900 -350 Descending Toronto Center
Mon 03:08:48 PM 44.1000 -78.8000 144° Southeast 100 115 2,500 -250 Descending Toronto Center
Mon 03:09:48 PM 44.0833 -78.7500 115° Southeast 100 115 2,400 -50 Descending Toronto Center
Mon 03:10:48 PM 44.0667 -78.7333 144° Southeast 100 115 2,400 -100 Level Toronto Center
Mon 03:11:48 PM 44.0500 -78.7500 216° Southwest 90 104 2,200 -100 Descending Toronto Center
Mon 03:12:48 PM 44.0167 -78.7667 200° South 100 115 2,200  Level Toronto Center
Mon 03:13:48 PM 44.0000 -78.8000 235° Southwest 90 104 2,200 -50 Level Toronto Center
Mon 03:14:48 PM 43.9833 -78.8000 180° South 90 104 2,100 -347 Descending Toronto Center
Mon 03:15:49 PM 43.9667 -78.8167 216° Southwest 90 104 1,500 -590 Descending Toronto Center
Mon 03:17:00 PM 43.9324 -78.8778 144° Southeast  Level Estimated

Login

Don't have an account? Register now (free) for customized features, flight alerts, and more!